sensor_id;sensor_type;location;lat;lon;timestamp;P1;durP1;ratioP1;P2;durP2;ratioP2
26820;SDS011;37186;51.394;5.454;2022-11-25T00:01:02;5.40;;;5.30;;
26820;SDS011;37186;51.394;5.454;2022-11-25T00:04:04;5.53;;;5.43;;
26820;SDS011;37186;51.394;5.454;2022-11-25T00:07:04;5.67;;;5.53;;
26820;SDS011;37186;51.394;5.454;2022-11-25T00:10:05;5.90;;;5.70;;
26820;SDS011;37186;51.394;5.454;2022-11-25T00:13:06;5.23;;;5.13;;
26820;SDS011;37186;51.394;5.454;2022-11-25T00:16:09;6.00;;;5.80;;
26820;SDS011;37186;51.394;5.454;2022-11-25T00:19:10;5.80;;;5.63;;
26820;SDS011;37186;51.394;5.454;2022-11-25T00:22:11;5.47;;;5.37;;
26820;SDS011;37186;51.394;5.454;2022-11-25T00:25:12;6.00;;;5.80;;
26820;SDS011;37186;51.394;5.454;2022-11-25T00:28:12;5.60;;;5.50;;
26820;SDS011;37186;51.394;5.454;2022-11-25T00:31:17;5.80;;;5.63;;
26820;SDS011;37186;51.394;5.454;2022-11-25T00:34:23;5.77;;;5.60;;
26820;SDS011;37186;51.394;5.454;2022-11-25T00:37:23;5.63;;;5.53;;
26820;SDS011;37186;51.394;5.454;2022-11-25T00:40:24;5.80;;;5.63;;
26820;SDS011;37186;51.394;5.454;2022-11-25T00:43:25;5.63;;;5.53;;
26820;SDS011;37186;51.394;5.454;2022-11-25T00:46:45;5.67;;;5.57;;
26820;SDS011;37186;51.394;5.454;2022-11-25T00:49:46;5.57;;;5.47;;
26820;SDS011;37186;51.394;5.454;2022-11-25T00:52:48;5.50;;;5.40;;
26820;SDS011;37186;51.394;5.454;2022-11-25T00:55:48;5.63;;;5.50;;
26820;SDS011;37186;51.394;5.454;2022-11-25T00:59:08;5.67;;;5.53;;
26820;SDS011;37186;51.394;5.454;2022-11-25T01:02:09;5.77;;;5.60;;
26820;SDS011;37186;51.394;5.454;2022-11-25T01:05:10;5.53;;;5.43;;
26820;SDS011;37186;51.394;5.454;2022-11-25T01:08:11;5.47;;;5.37;;
26820;SDS011;37186;51.394;5.454;2022-11-25T01:11:13;5.50;;;5.40;;
26820;SDS011;37186;51.394;5.454;2022-11-25T01:14:15;5.83;;;5.67;;
26820;SDS011;37186;51.394;5.454;2022-11-25T01:17:16;5.53;;;5.43;;
26820;SDS011;37186;51.394;5.454;2022-11-25T01:20:17;5.60;;;5.47;;
26820;SDS011;37186;51.394;5.454;2022-11-25T01:23:17;5.90;;;5.70;;
26820;SDS011;37186;51.394;5.454;2022-11-25T01:26:19;5.37;;;5.27;;
26820;SDS011;37186;51.394;5.454;2022-11-25T01:29:21;5.60;;;5.50;;
26820;SDS011;37186;51.394;5.454;2022-11-25T01:32:22;5.63;;;5.50;;
26820;SDS011;37186;51.394;5.454;2022-11-25T01:35:22;5.53;;;5.43;;
26820;SDS011;37186;51.394;5.454;2022-11-25T01:38:23;5.70;;;5.57;;
26820;SDS011;37186;51.394;5.454;2022-11-25T01:41:25;5.93;;;5.73;;
26820;SDS011;37186;51.394;5.454;2022-11-25T01:44:28;5.57;;;5.47;;
26820;SDS011;37186;51.394;5.454;2022-11-25T01:47:30;5.33;;;5.23;;
26820;SDS011;37186;51.394;5.454;2022-11-25T01:50:30;5.70;;;5.57;;
26820;SDS011;37186;51.394;5.454;2022-11-25T01:53:32;5.40;;;5.30;;
26820;SDS011;37186;51.394;5.454;2022-11-25T01:56:34;5.60;;;5.47;;
26820;SDS011;37186;51.394;5.454;2022-11-25T01:59:43;5.83;;;5.67;;
26820;SDS011;37186;51.394;5.454;2022-11-25T02:02:48;5.53;;;5.43;;
26820;SDS011;37186;51.394;5.454;2022-11-25T02:05:57;5.27;;;5.17;;
26820;SDS011;37186;51.394;5.454;2022-11-25T02:09:06;5.07;;;4.97;;
26820;SDS011;37186;51.394;5.454;2022-11-25T02:12:07;5.63;;;5.53;;
26820;SDS011;37186;51.394;5.454;2022-11-25T02:15:09;5.70;;;5.57;;
26820;SDS011;37186;51.394;5.454;2022-11-25T02:18:10;5.50;;;5.40;;
26820;SDS011;37186;51.394;5.454;2022-11-25T02:21:10;5.50;;;5.40;;
26820;SDS011;37186;51.394;5.454;2022-11-25T02:24:37;5.57;;;5.47;;
26820;SDS011;37186;51.394;5.454;2022-11-25T02:27:44;5.63;;;5.50;;
26820;SDS011;37186;51.394;5.454;2022-11-25T02:30:46;5.30;;;5.20;;
26820;SDS011;37186;51.394;5.454;2022-11-25T02:33:47;5.47;;;5.37;;
26820;SDS011;37186;51.394;5.454;2022-11-25T02:36:48;5.40;;;5.30;;
26820;SDS011;37186;51.394;5.454;2022-11-25T02:39:49;5.37;;;5.27;;
26820;SDS011;37186;51.394;5.454;2022-11-25T02:42:52;5.80;;;5.63;;
26820;SDS011;37186;51.394;5.454;2022-11-25T02:49:04;5.73;;;5.57;;
26820;SDS011;37186;51.394;5.454;2022-11-25T02:52:04;5.30;;;5.20;;
26820;SDS011;37186;51.394;5.454;2022-11-25T02:55:05;5.60;;;5.50;;
26820;SDS011;37186;51.394;5.454;2022-11-25T02:58:06;5.27;;;5.17;;
26820;SDS011;37186;51.394;5.454;2022-11-25T03:01:07;5.47;;;5.37;;
26820;SDS011;37186;51.394;5.454;2022-11-25T03:04:08;5.53;;;5.43;;
26820;SDS011;37186;51.394;5.454;2022-11-25T03:07:09;5.53;;;5.43;;
26820;SDS011;37186;51.394;5.454;2022-11-25T03:10:10;5.47;;;5.37;;
26820;SDS011;37186;51.394;5.454;2022-11-25T03:13:11;5.53;;;5.40;;
26820;SDS011;37186;51.394;5.454;2022-11-25T03:16:11;5.43;;;5.33;;
26820;SDS011;37186;51.394;5.454;2022-11-25T03:19:12;5.27;;;5.17;;
26820;SDS011;37186;51.394;5.454;2022-11-25T03:22:12;5.57;;;5.47;;
26820;SDS011;37186;51.394;5.454;2022-11-25T03:25:13;5.43;;;5.33;;
26820;SDS011;37186;51.394;5.454;2022-11-25T03:28:14;5.57;;;5.43;;
26820;SDS011;37186;51.394;5.454;2022-11-25T03:31:14;5.23;;;5.13;;
26820;SDS011;37186;51.394;5.454;2022-11-25T03:34:15;5.67;;;5.53;;
26820;SDS011;37186;51.394;5.454;2022-11-25T03:37:16;5.30;;;5.20;;
26820;SDS011;37186;51.394;5.454;2022-11-25T03:40:17;5.40;;;5.30;;
26820;SDS011;37186;51.394;5.454;2022-11-25T03:43:17;5.43;;;5.33;;
26820;SDS011;37186;51.394;5.454;2022-11-25T03:46:18;5.60;;;5.47;;
26820;SDS011;37186;51.394;5.454;2022-11-25T03:49:18;5.37;;;5.27;;
26820;SDS011;37186;51.394;5.454;2022-11-25T03:52:20;5.80;;;5.63;;
26820;SDS011;37186;51.394;5.454;2022-11-25T03:55:21;5.70;;;5.57;;
26820;SDS011;37186;51.394;5.454;2022-11-25T03:58:21;5.83;;;5.67;;
26820;SDS011;37186;51.394;5.454;2022-11-25T04:01:22;5.13;;;5.03;;
26820;SDS011;37186;51.394;5.454;2022-11-25T04:04:22;5.17;;;5.07;;
26820;SDS011;37186;51.394;5.454;2022-11-25T04:07:23;5.33;;;5.23;;
26820;SDS011;37186;51.394;5.454;2022-11-25T04:10:24;5.13;;;5.03;;
26820;SDS011;37186;51.394;5.454;2022-11-25T04:13:24;5.47;;;5.37;;
26820;SDS011;37186;51.394;5.454;2022-11-25T04:16:25;5.30;;;5.20;;
26820;SDS011;37186;51.394;5.454;2022-11-25T04:19:25;5.03;;;4.93;;
26820;SDS011;37186;51.394;5.454;2022-11-25T04:22:26;5.20;;;5.10;;
26820;SDS011;37186;51.394;5.454;2022-11-25T04:25:26;4.90;;;4.80;;
26820;SDS011;37186;51.394;5.454;2022-11-25T04:28:27;5.10;;;5.00;;
26820;SDS011;37186;51.394;5.454;2022-11-25T04:31:27;5.30;;;5.20;;
26820;SDS011;37186;51.394;5.454;2022-11-25T04:34:28;5.00;;;4.90;;
26820;SDS011;37186;51.394;5.454;2022-11-25T04:37:28;5.00;;;4.90;;
26820;SDS011;37186;51.394;5.454;2022-11-25T04:40:29;5.03;;;4.93;;
26820;SDS011;37186;51.394;5.454;2022-11-25T04:43:30;4.87;;;4.77;;
26820;SDS011;37186;51.394;5.454;2022-11-25T04:46:33;4.90;;;4.80;;
26820;SDS011;37186;51.394;5.454;2022-11-25T04:49:37;4.63;;;4.53;;
26820;SDS011;37186;51.394;5.454;2022-11-25T04:52:38;5.00;;;4.90;;
26820;SDS011;37186;51.394;5.454;2022-11-25T04:55:38;4.80;;;4.70;;
26820;SDS011;37186;51.394;5.454;2022-11-25T04:58:39;4.97;;;4.87;;
26820;SDS011;37186;51.394;5.454;2022-11-25T05:01:58;4.93;;;4.83;;
26820;SDS011;37186;51.394;5.454;2022-11-25T05:04:59;4.70;;;4.60;;
26820;SDS011;37186;51.394;5.454;2022-11-25T05:08:00;5.00;;;4.90;;
26820;SDS011;37186;51.394;5.454;2022-11-25T05:11:00;5.03;;;4.93;;
26820;SDS011;37186;51.394;5.454;2022-11-25T05:14:01;4.80;;;4.70;;
26820;SDS011;37186;51.394;5.454;2022-11-25T05:17:02;4.70;;;4.60;;
26820;SDS011;37186;51.394;5.454;2022-11-25T05:20:03;4.77;;;4.67;;
26820;SDS011;37186;51.394;5.454;2022-11-25T05:23:04;4.87;;;4.77;;
26820;SDS011;37186;51.394;5.454;2022-11-25T05:26:04;4.77;;;4.67;;
26820;SDS011;37186;51.394;5.454;2022-11-25T05:29:05;4.90;;;4.80;;
26820;SDS011;37186;51.394;5.454;2022-11-25T05:32:05;4.70;;;4.60;;
26820;SDS011;37186;51.394;5.454;2022-11-25T05:35:06;4.93;;;4.83;;
26820;SDS011;37186;51.394;5.454;2022-11-25T05:38:07;4.87;;;4.77;;
26820;SDS011;37186;51.394;5.454;2022-11-25T05:41:09;4.83;;;4.73;;
26820;SDS011;37186;51.394;5.454;2022-11-25T05:44:10;4.43;;;4.33;;
26820;SDS011;37186;51.394;5.454;2022-11-25T05:47:11;4.63;;;4.53;;
26820;SDS011;37186;51.394;5.454;2022-11-25T05:50:11;4.73;;;4.63;;
26820;SDS011;37186;51.394;5.454;2022-11-25T05:53:12;4.60;;;4.50;;
26820;SDS011;37186;51.394;5.454;2022-11-25T05:56:13;4.70;;;4.60;;
26820;SDS011;37186;51.394;5.454;2022-11-25T05:59:13;4.50;;;4.40;;
26820;SDS011;37186;51.394;5.454;2022-11-25T06:02:14;4.90;;;4.80;;
26820;SDS011;37186;51.394;5.454;2022-11-25T06:05:14;4.63;;;4.53;;
26820;SDS011;37186;51.394;5.454;2022-11-25T06:08:15;4.40;;;4.30;;
26820;SDS011;37186;51.394;5.454;2022-11-25T06:11:16;4.30;;;4.20;;
26820;SDS011;37186;51.394;5.454;2022-11-25T06:14:17;4.50;;;4.40;;
26820;SDS011;37186;51.394;5.454;2022-11-25T06:17:18;4.50;;;4.40;;
26820;SDS011;37186;51.394;5.454;2022-11-25T06:20:18;4.30;;;4.20;;
26820;SDS011;37186;51.394;5.454;2022-11-25T06:23:19;4.40;;;4.30;;
26820;SDS011;37186;51.394;5.454;2022-11-25T06:26:20;4.27;;;4.17;;
26820;SDS011;37186;51.394;5.454;2022-11-25T06:29:22;4.37;;;4.27;;
26820;SDS011;37186;51.394;5.454;2022-11-25T06:32:22;4.60;;;4.50;;
26820;SDS011;37186;51.394;5.454;2022-11-25T06:35:23;4.37;;;4.27;;
26820;SDS011;37186;51.394;5.454;2022-11-25T06:38:23;4.40;;;4.30;;
26820;SDS011;37186;51.394;5.454;2022-11-25T06:41:24;4.50;;;4.40;;
26820;SDS011;37186;51.394;5.454;2022-11-25T06:44:24;4.20;;;4.10;;
26820;SDS011;37186;51.394;5.454;2022-11-25T06:47:25;4.20;;;4.10;;
26820;SDS011;37186;51.394;5.454;2022-11-25T06:50:25;4.50;;;4.40;;
26820;SDS011;37186;51.394;5.454;2022-11-25T06:53:26;4.00;;;3.90;;
26820;SDS011;37186;51.394;5.454;2022-11-25T06:56:26;4.10;;;4.00;;
26820;SDS011;37186;51.394;5.454;2022-11-25T06:59:27;4.13;;;4.03;;
26820;SDS011;37186;51.394;5.454;2022-11-25T07:02:28;4.30;;;4.20;;
26820;SDS011;37186;51.394;5.454;2022-11-25T07:05:28;3.80;;;3.70;;
26820;SDS011;37186;51.394;5.454;2022-11-25T07:08:30;4.10;;;4.00;;
26820;SDS011;37186;51.394;5.454;2022-11-25T07:11:32;4.10;;;4.00;;
26820;SDS011;37186;51.394;5.454;2022-11-25T07:14:33;4.10;;;4.00;;
26820;SDS011;37186;51.394;5.454;2022-11-25T07:17:34;3.97;;;3.87;;
26820;SDS011;37186;51.394;5.454;2022-11-25T07:20:34;4.17;;;4.07;;
26820;SDS011;37186;51.394;5.454;2022-11-25T07:23:36;3.97;;;3.87;;
26820;SDS011;37186;51.394;5.454;2022-11-25T07:26:37;3.97;;;3.87;;
26820;SDS011;37186;51.394;5.454;2022-11-25T07:29:39;3.97;;;3.87;;
26820;SDS011;37186;51.394;5.454;2022-11-25T07:32:40;3.83;;;3.73;;
26820;SDS011;37186;51.394;5.454;2022-11-25T07:35:40;3.97;;;3.87;;
26820;SDS011;37186;51.394;5.454;2022-11-25T07:38:41;4.00;;;3.90;;
26820;SDS011;37186;51.394;5.454;2022-11-25T07:41:41;3.93;;;3.83;;
26820;SDS011;37186;51.394;5.454;2022-11-25T07:44:42;3.93;;;3.83;;
26820;SDS011;37186;51.394;5.454;2022-11-25T07:47:42;3.77;;;3.67;;
26820;SDS011;37186;51.394;5.454;2022-11-25T07:50:43;3.63;;;3.53;;
26820;SDS011;37186;51.394;5.454;2022-11-25T07:53:45;4.00;;;3.90;;
26820;SDS011;37186;51.394;5.454;2022-11-25T07:56:47;3.73;;;3.63;;
26820;SDS011;37186;51.394;5.454;2022-11-25T07:59:48;3.73;;;3.63;;
26820;SDS011;37186;51.394;5.454;2022-11-25T08:02:49;3.80;;;3.70;;
26820;SDS011;37186;51.394;5.454;2022-11-25T08:05:49;3.63;;;3.53;;
26820;SDS011;37186;51.394;5.454;2022-11-25T08:08:50;3.80;;;3.70;;
26820;SDS011;37186;51.394;5.454;2022-11-25T08:11:53;3.63;;;3.53;;
26820;SDS011;37186;51.394;5.454;2022-11-25T08:14:54;3.70;;;3.60;;
26820;SDS011;37186;51.394;5.454;2022-11-25T08:17:55;3.73;;;3.63;;
26820;SDS011;37186;51.394;5.454;2022-11-25T08:21:02;3.60;;;3.50;;
26820;SDS011;37186;51.394;5.454;2022-11-25T08:24:04;3.80;;;3.70;;
26820;SDS011;37186;51.394;5.454;2022-11-25T08:27:05;3.60;;;3.50;;
26820;SDS011;37186;51.394;5.454;2022-11-25T08:30:06;3.60;;;3.50;;
26820;SDS011;37186;51.394;5.454;2022-11-25T08:33:07;3.63;;;3.53;;
26820;SDS011;37186;51.394;5.454;2022-11-25T08:36:07;3.67;;;3.57;;
26820;SDS011;37186;51.394;5.454;2022-11-25T08:39:09;3.77;;;3.67;;
26820;SDS011;37186;51.394;5.454;2022-11-25T08:42:10;3.70;;;3.60;;
26820;SDS011;37186;51.394;5.454;2022-11-25T08:45:10;3.60;;;3.50;;
26820;SDS011;37186;51.394;5.454;2022-11-25T08:48:11;3.80;;;3.70;;
26820;SDS011;37186;51.394;5.454;2022-11-25T08:51:13;3.57;;;3.47;;
26820;SDS011;37186;51.394;5.454;2022-11-25T08:54:15;3.73;;;3.63;;
26820;SDS011;37186;51.394;5.454;2022-11-25T08:57:16;3.73;;;3.63;;
26820;SDS011;37186;51.394;5.454;2022-11-25T09:00:17;3.80;;;3.70;;
26820;SDS011;37186;51.394;5.454;2022-11-25T09:03:17;3.80;;;3.70;;
26820;SDS011;37186;51.394;5.454;2022-11-25T09:06:18;3.93;;;3.83;;
26820;SDS011;37186;51.394;5.454;2022-11-25T09:09:19;4.03;;;3.93;;
26820;SDS011;37186;51.394;5.454;2022-11-25T09:12:19;3.80;;;3.70;;
26820;SDS011;37186;51.394;5.454;2022-11-25T09:15:20;3.87;;;3.77;;
26820;SDS011;37186;51.394;5.454;2022-11-25T09:18:21;3.90;;;3.80;;
26820;SDS011;37186;51.394;5.454;2022-11-25T09:21:25;3.83;;;3.73;;
26820;SDS011;37186;51.394;5.454;2022-11-25T09:24:25;4.07;;;3.97;;
26820;SDS011;37186;51.394;5.454;2022-11-25T09:27:26;4.20;;;4.10;;
26820;SDS011;37186;51.394;5.454;2022-11-25T09:30:26;4.27;;;4.17;;
26820;SDS011;37186;51.394;5.454;2022-11-25T09:33:27;4.33;;;4.23;;
26820;SDS011;37186;51.394;5.454;2022-11-25T09:36:27;4.30;;;4.20;;
26820;SDS011;37186;51.394;5.454;2022-11-25T09:39:28;4.20;;;4.10;;
26820;SDS011;37186;51.394;5.454;2022-11-25T09:50:02;4.47;;;4.37;;
26820;SDS011;37186;51.394;5.454;2022-11-25T09:56:40;4.13;;;4.03;;
26820;SDS011;37186;51.394;5.454;2022-11-25T10:00:01;4.47;;;4.37;;
26820;SDS011;37186;51.394;5.454;2022-11-25T10:03:14;4.20;;;4.10;;
26820;SDS011;37186;51.394;5.454;2022-11-25T10:06:27;4.40;;;4.30;;
26820;SDS011;37186;51.394;5.454;2022-11-25T10:09:31;4.30;;;4.20;;
26820;SDS011;37186;51.394;5.454;2022-11-25T10:12:36;4.60;;;4.50;;
26820;SDS011;37186;51.394;5.454;2022-11-25T10:15:40;4.40;;;4.30;;
26820;SDS011;37186;51.394;5.454;2022-11-25T10:18:46;4.37;;;4.27;;
26820;SDS011;37186;51.394;5.454;2022-11-25T10:22:13;4.50;;;4.40;;
26820;SDS011;37186;51.394;5.454;2022-11-25T10:25:24;4.63;;;4.53;;
26820;SDS011;37186;51.394;5.454;2022-11-25T10:28:32;4.40;;;4.30;;
26820;SDS011;37186;51.394;5.454;2022-11-25T10:31:35;4.50;;;4.40;;
26820;SDS011;37186;51.394;5.454;2022-11-25T10:34:39;4.57;;;4.47;;
26820;SDS011;37186;51.394;5.454;2022-11-25T10:37:45;4.50;;;4.40;;
26820;SDS011;37186;51.394;5.454;2022-11-25T10:40:48;4.60;;;4.50;;
26820;SDS011;37186;51.394;5.454;2022-11-25T10:43:50;4.40;;;4.30;;
26820;SDS011;37186;51.394;5.454;2022-11-25T10:53:41;4.03;;;3.93;;
26820;SDS011;37186;51.394;5.454;2022-11-25T10:57:17;4.60;;;4.50;;
26820;SDS011;37186;51.394;5.454;2022-11-25T11:00:33;4.60;;;4.50;;
26820;SDS011;37186;51.394;5.454;2022-11-25T11:03:36;4.60;;;4.50;;
26820;SDS011;37186;51.394;5.454;2022-11-25T11:06:38;4.63;;;4.53;;
26820;SDS011;37186;51.394;5.454;2022-11-25T11:09:39;4.70;;;4.60;;
26820;SDS011;37186;51.394;5.454;2022-11-25T11:12:52;4.67;;;4.57;;
26820;SDS011;37186;51.394;5.454;2022-11-25T11:16:19;4.53;;;4.43;;
26820;SDS011;37186;51.394;5.454;2022-11-25T11:19:27;4.23;;;4.13;;
26820;SDS011;37186;51.394;5.454;2022-11-25T11:22:29;4.33;;;4.23;;
26820;SDS011;37186;51.394;5.454;2022-11-25T11:25:33;4.40;;;4.30;;
26820;SDS011;37186;51.394;5.454;2022-11-25T11:31:36;4.30;;;4.20;;
26820;SDS011;37186;51.394;5.454;2022-11-25T11:34:43;4.30;;;4.20;;
26820;SDS011;37186;51.394;5.454;2022-11-25T11:41:49;4.23;;;4.13;;
26820;SDS011;37186;51.394;5.454;2022-11-25T11:45:25;4.17;;;4.07;;
26820;SDS011;37186;51.394;5.454;2022-11-25T11:49:00;4.43;;;4.33;;
26820;SDS011;37186;51.394;5.454;2022-11-25T12:05:52;5.43;;;5.33;;
26820;SDS011;37186;51.394;5.454;2022-11-25T12:09:09;6.07;;;5.87;;
26820;SDS011;37186;51.394;5.454;2022-11-25T12:12:14;5.47;;;5.37;;
26820;SDS011;37186;51.394;5.454;2022-11-25T12:15:20;6.17;;;5.97;;
26820;SDS011;37186;51.394;5.454;2022-11-25T12:25:16;5.67;;;5.53;;
26820;SDS011;37186;51.394;5.454;2022-11-25T12:28:24;5.87;;;5.70;;
26820;SDS011;37186;51.394;5.454;2022-11-25T12:31:36;5.93;;;5.73;;
26820;SDS011;37186;51.394;5.454;2022-11-25T12:34:40;6.20;;;6.00;;
26820;SDS011;37186;51.394;5.454;2022-11-25T12:41:06;5.70;;;5.57;;
26820;SDS011;37186;51.394;5.454;2022-11-25T12:47:25;5.87;;;5.70;;
26820;SDS011;37186;51.394;5.454;2022-11-25T12:50:39;6.40;;;6.20;;
26820;SDS011;37186;51.394;5.454;2022-11-25T12:54:18;6.10;;;5.90;;
26820;SDS011;37186;51.394;5.454;2022-11-25T13:11:48;5.50;;;5.40;;
26820;SDS011;37186;51.394;5.454;2022-11-25T13:18:28;5.63;;;5.50;;
26820;SDS011;37186;51.394;5.454;2022-11-25T13:21:32;5.90;;;5.73;;
26820;SDS011;37186;51.394;5.454;2022-11-25T13:24:41;5.93;;;5.77;;
26820;SDS011;37186;51.394;5.454;2022-11-25T13:30:42;6.27;;;6.07;;
26820;SDS011;37186;51.394;5.454;2022-11-25T13:36:48;5.80;;;5.63;;
26820;SDS011;37186;51.394;5.454;2022-11-25T13:39:50;5.90;;;5.70;;
26820;SDS011;37186;51.394;5.454;2022-11-25T13:43:20;6.03;;;5.83;;
26820;SDS011;37186;51.394;5.454;2022-11-25T13:46:28;6.10;;;5.90;;
26820;SDS011;37186;51.394;5.454;2022-11-25T13:49:42;6.00;;;5.80;;
26820;SDS011;37186;51.394;5.454;2022-11-25T13:56:14;6.27;;;6.07;;
26820;SDS011;37186;51.394;5.454;2022-11-25T13:59:58;5.67;;;5.53;;
26820;SDS011;37186;51.394;5.454;2022-11-25T14:02:52;6.07;;;5.87;;
26820;SDS011;37186;51.394;5.454;2022-11-25T14:09:29;6.00;;;5.80;;
26820;SDS011;37186;51.394;5.454;2022-11-25T14:13:13;6.30;;;6.10;;
26820;SDS011;37186;51.394;5.454;2022-11-25T14:19:32;6.40;;;6.20;;
26820;SDS011;37186;51.394;5.454;2022-11-25T14:26:26;6.00;;;5.80;;
26820;SDS011;37186;51.394;5.454;2022-11-25T14:29:35;6.03;;;5.83;;
26820;SDS011;37186;51.394;5.454;2022-11-25T14:35:59;6.20;;;6.00;;
26820;SDS011;37186;51.394;5.454;2022-11-25T14:39:05;6.37;;;6.17;;
26820;SDS011;37186;51.394;5.454;2022-11-25T14:42:13;6.07;;;5.87;;
26820;SDS011;37186;51.394;5.454;2022-11-25T14:45:21;6.27;;;6.07;;
26820;SDS011;37186;51.394;5.454;2022-11-25T14:48:28;6.40;;;6.20;;
26820;SDS011;37186;51.394;5.454;2022-11-25T14:51:33;6.30;;;6.10;;
26820;SDS011;37186;51.394;5.454;2022-11-25T14:54:42;5.80;;;5.63;;
26820;SDS011;37186;51.394;5.454;2022-11-25T14:57:43;5.87;;;5.70;;
26820;SDS011;37186;51.394;5.454;2022-11-25T15:00:54;6.30;;;6.10;;
26820;SDS011;37186;51.394;5.454;2022-11-25T15:04:02;5.97;;;5.77;;
26820;SDS011;37186;51.394;5.454;2022-11-25T15:07:15;6.07;;;5.87;;
26820;SDS011;37186;51.394;5.454;2022-11-25T15:10:31;5.73;;;5.60;;
26820;SDS011;37186;51.394;5.454;2022-11-25T15:13:42;5.87;;;5.70;;
26820;SDS011;37186;51.394;5.454;2022-11-25T15:16:45;6.10;;;5.90;;
26820;SDS011;37186;51.394;5.454;2022-11-25T15:19:46;5.93;;;5.73;;
26820;SDS011;37186;51.394;5.454;2022-11-25T15:22:47;6.00;;;5.80;;
26820;SDS011;37186;51.394;5.454;2022-11-25T15:25:51;5.53;;;5.43;;
26820;SDS011;37186;51.394;5.454;2022-11-25T15:28:53;5.77;;;5.60;;
26820;SDS011;37186;51.394;5.454;2022-11-25T15:31:56;5.67;;;5.53;;
26820;SDS011;37186;51.394;5.454;2022-11-25T15:34:59;5.40;;;5.30;;
26820;SDS011;37186;51.394;5.454;2022-11-25T15:38:33;5.10;;;5.00;;
26820;SDS011;37186;51.394;5.454;2022-11-25T15:42:27;5.60;;;5.50;;
26820;SDS011;37186;51.394;5.454;2022-11-25T15:45:29;5.20;;;5.10;;
26820;SDS011;37186;51.394;5.454;2022-11-25T15:51:42;5.00;;;4.90;;
26820;SDS011;37186;51.394;5.454;2022-11-25T15:54:49;5.43;;;5.33;;
26820;SDS011;37186;51.394;5.454;2022-11-25T15:57:50;5.53;;;5.43;;
26820;SDS011;37186;51.394;5.454;2022-11-25T16:01:06;5.50;;;5.40;;
26820;SDS011;37186;51.394;5.454;2022-11-25T16:04:19;5.30;;;5.20;;
26820;SDS011;37186;51.394;5.454;2022-11-25T16:07:21;5.33;;;5.23;;
26820;SDS011;37186;51.394;5.454;2022-11-25T16:10:32;5.43;;;5.33;;
26820;SDS011;37186;51.394;5.454;2022-11-25T16:13:48;5.33;;;5.23;;
26820;SDS011;37186;51.394;5.454;2022-11-25T16:16:50;5.40;;;5.30;;
26820;SDS011;37186;51.394;5.454;2022-11-25T16:19:50;5.13;;;5.03;;
26820;SDS011;37186;51.394;5.454;2022-11-25T16:22:51;5.30;;;5.20;;
26820;SDS011;37186;51.394;5.454;2022-11-25T16:29:25;5.13;;;5.03;;
26820;SDS011;37186;51.394;5.454;2022-11-25T16:32:31;4.83;;;4.73;;
26820;SDS011;37186;51.394;5.454;2022-11-25T16:35:34;5.37;;;5.27;;
26820;SDS011;37186;51.394;5.454;2022-11-25T16:38:36;5.47;;;5.37;;
26820;SDS011;37186;51.394;5.454;2022-11-25T16:41:36;5.30;;;5.20;;
26820;SDS011;37186;51.394;5.454;2022-11-25T16:44:39;5.50;;;5.40;;
26820;SDS011;37186;51.394;5.454;2022-11-25T16:47:39;5.57;;;5.47;;
26820;SDS011;37186;51.394;5.454;2022-11-25T16:50:40;5.33;;;5.23;;
26820;SDS011;37186;51.394;5.454;2022-11-25T16:53:40;5.37;;;5.27;;
26820;SDS011;37186;51.394;5.454;2022-11-25T16:56:42;5.40;;;5.30;;
26820;SDS011;37186;51.394;5.454;2022-11-25T16:59:44;5.20;;;5.10;;
26820;SDS011;37186;51.394;5.454;2022-11-25T17:02:47;5.53;;;5.43;;
26820;SDS011;37186;51.394;5.454;2022-11-25T17:05:48;5.23;;;5.13;;
26820;SDS011;37186;51.394;5.454;2022-11-25T17:08:50;5.23;;;5.13;;
26820;SDS011;37186;51.394;5.454;2022-11-25T17:11:51;5.17;;;5.07;;
26820;SDS011;37186;51.394;5.454;2022-11-25T17:14:56;5.17;;;5.07;;
26820;SDS011;37186;51.394;5.454;2022-11-25T17:17:59;5.40;;;5.30;;
26820;SDS011;37186;51.394;5.454;2022-11-25T17:21:01;5.23;;;5.13;;
26820;SDS011;37186;51.394;5.454;2022-11-25T17:24:04;5.27;;;5.17;;
26820;SDS011;37186;51.394;5.454;2022-11-25T17:27:21;5.27;;;5.17;;
26820;SDS011;37186;51.394;5.454;2022-11-25T17:30:23;5.10;;;5.00;;
26820;SDS011;37186;51.394;5.454;2022-11-25T17:33:26;4.93;;;4.83;;
26820;SDS011;37186;51.394;5.454;2022-11-25T17:36:26;5.40;;;5.30;;
26820;SDS011;37186;51.394;5.454;2022-11-25T17:39:27;5.37;;;5.27;;
26820;SDS011;37186;51.394;5.454;2022-11-25T17:42:28;5.50;;;5.40;;
26820;SDS011;37186;51.394;5.454;2022-11-25T17:45:30;5.13;;;5.03;;
26820;SDS011;37186;51.394;5.454;2022-11-25T17:48:31;5.47;;;5.37;;
26820;SDS011;37186;51.394;5.454;2022-11-25T17:51:31;5.50;;;5.40;;
26820;SDS011;37186;51.394;5.454;2022-11-25T17:54:32;5.53;;;5.43;;
26820;SDS011;37186;51.394;5.454;2022-11-25T17:57:32;5.07;;;4.97;;
26820;SDS011;37186;51.394;5.454;2022-11-25T18:00:33;5.17;;;5.07;;
26820;SDS011;37186;51.394;5.454;2022-11-25T18:03:34;5.43;;;5.33;;
26820;SDS011;37186;51.394;5.454;2022-11-25T18:06:34;5.07;;;4.97;;
26820;SDS011;37186;51.394;5.454;2022-11-25T18:09:35;5.20;;;5.10;;
26820;SDS011;37186;51.394;5.454;2022-11-25T18:12:35;4.90;;;4.80;;
26820;SDS011;37186;51.394;5.454;2022-11-25T18:15:37;5.30;;;5.20;;
26820;SDS011;37186;51.394;5.454;2022-11-25T18:18:39;5.03;;;4.93;;
26820;SDS011;37186;51.394;5.454;2022-11-25T18:21:39;5.13;;;5.03;;
26820;SDS011;37186;51.394;5.454;2022-11-25T18:24:40;5.33;;;5.23;;
26820;SDS011;37186;51.394;5.454;2022-11-25T18:27:41;4.93;;;4.83;;
26820;SDS011;37186;51.394;5.454;2022-11-25T18:30:43;5.07;;;4.97;;
26820;SDS011;37186;51.394;5.454;2022-11-25T18:33:44;5.13;;;5.03;;
26820;SDS011;37186;51.394;5.454;2022-11-25T18:36:45;5.30;;;5.20;;
26820;SDS011;37186;51.394;5.454;2022-11-25T18:39:45;5.30;;;5.20;;
26820;SDS011;37186;51.394;5.454;2022-11-25T18:42:46;5.27;;;5.17;;
26820;SDS011;37186;51.394;5.454;2022-11-25T18:45:49;5.30;;;5.20;;
26820;SDS011;37186;51.394;5.454;2022-11-25T18:48:50;4.93;;;4.83;;
26820;SDS011;37186;51.394;5.454;2022-11-25T18:51:53;5.27;;;5.17;;
26820;SDS011;37186;51.394;5.454;2022-11-25T18:54:54;5.20;;;5.10;;
26820;SDS011;37186;51.394;5.454;2022-11-25T18:57:54;5.20;;;5.10;;
26820;SDS011;37186;51.394;5.454;2022-11-25T19:00:56;4.80;;;4.70;;
26820;SDS011;37186;51.394;5.454;2022-11-25T19:04:01;5.00;;;4.90;;
26820;SDS011;37186;51.394;5.454;2022-11-25T19:07:03;4.87;;;4.77;;
26820;SDS011;37186;51.394;5.454;2022-11-25T19:10:03;5.17;;;5.07;;
26820;SDS011;37186;51.394;5.454;2022-11-25T19:13:05;5.17;;;5.07;;
26820;SDS011;37186;51.394;5.454;2022-11-25T19:16:11;4.80;;;4.70;;
26820;SDS011;37186;51.394;5.454;2022-11-25T19:19:14;4.63;;;4.53;;
26820;SDS011;37186;51.394;5.454;2022-11-25T19:22:16;4.80;;;4.70;;
26820;SDS011;37186;51.394;5.454;2022-11-25T19:25:17;5.10;;;5.00;;
26820;SDS011;37186;51.394;5.454;2022-11-25T19:28:18;4.47;;;4.37;;
26820;SDS011;37186;51.394;5.454;2022-11-25T19:31:19;4.60;;;4.50;;
26820;SDS011;37186;51.394;5.454;2022-11-25T19:34:24;4.60;;;4.50;;
26820;SDS011;37186;51.394;5.454;2022-11-25T19:37:32;4.43;;;4.33;;
26820;SDS011;37186;51.394;5.454;2022-11-25T19:40:33;4.53;;;4.43;;
26820;SDS011;37186;51.394;5.454;2022-11-25T19:43:36;4.63;;;4.53;;
26820;SDS011;37186;51.394;5.454;2022-11-25T19:46:37;4.53;;;4.43;;
26820;SDS011;37186;51.394;5.454;2022-11-25T19:49:42;4.40;;;4.30;;
26820;SDS011;37186;51.394;5.454;2022-11-25T19:52:43;4.30;;;4.20;;
26820;SDS011;37186;51.394;5.454;2022-11-25T19:55:44;4.37;;;4.27;;
26820;SDS011;37186;51.394;5.454;2022-11-25T19:58:45;4.37;;;4.27;;
26820;SDS011;37186;51.394;5.454;2022-11-25T20:01:46;4.37;;;4.27;;
26820;SDS011;37186;51.394;5.454;2022-11-25T20:04:47;4.17;;;4.07;;
26820;SDS011;37186;51.394;5.454;2022-11-25T20:07:50;4.13;;;4.03;;
26820;SDS011;37186;51.394;5.454;2022-11-25T20:10:50;4.17;;;4.07;;